Time;durP1;ratioP1;P1;durP2;ratioP2;P2;SDS_P1;SDS_P2;PMS_P1;PMS_P2;Temp;Humidity;BMP_temperature;BMP_pressure;BME280_temperature;BME280_humidity;BME280_pressure;Samples;Min_cycle;Max_cycle;Signal;HPM_P1;HPM_P2
2023/01/07 00:02:09;;;;;;;0.10;0.10;;;;;;;7.46;100.00;96808.63;4946274;28;20154;-77
2023/01/07 00:04:55;;;;;;;0.20;0.20;;;;;;;7.43;100.00;96804.56;4945010;28;20109;-76
2023/01/07 00:07:41;;;;;;;0.20;0.20;;;;;;;7.48;100.00;96809.25;4943439;28;20616;-77
2023/01/07 00:10:27;;;;;;;0.20;0.20;;;;;;;7.45;100.00;96807.81;4941438;28;20141;-77
2023/01/07 00:13:12;;;;;;;0.10;0.10;;;;;;;7.46;100.00;96808.63;4943805;28;20069;-77
2023/01/07 00:15:59;;;;;;;0.20;0.20;;;;;;;7.45;100.00;96801.66;4945177;28;20047;-77
2023/01/07 00:18:46;;;;;;;0.10;0.10;;;;;;;7.49;100.00;96795.69;4955872;28;20046;-76
2023/01/07 00:21:32;;;;;;;0.20;0.20;;;;;;;7.42;100.00;96797.59;4941750;28;20054;-77
2023/01/07 00:24:18;;;;;;;0.15;0.15;;;;;;;7.43;100.00;96801.91;4944578;28;21038;-76
2023/01/07 00:27:03;;;;;;;0.10;0.10;;;;;;;7.55;100.00;96788.69;4938782;28;20574;-77
2023/01/07 00:29:49;;;;;;;0.10;0.10;;;;;;;7.56;100.00;96786.84;4955813;28;20117;-77
2023/01/07 00:35:40;;;;;;;0.20;0.20;;;;;;;7.59;100.00;96778.38;4943333;28;20452;-77
2023/01/07 00:38:26;;;;;;;0.20;0.20;;;;;;;7.62;100.00;96781.41;4941575;28;20043;-78
2023/01/07 00:41:12;;;;;;;0.20;0.20;;;;;;;7.60;100.00;96777.34;4940689;28;20637;-78
2023/01/07 00:43:59;;;;;;;0.13;0.13;;;;;;;7.64;100.00;96781.22;4936718;28;20043;-76
2023/01/07 00:46:45;;;;;;;0.25;0.22;;;;;;;7.64;100.00;96775.88;4943125;28;20047;-76
2023/01/07 00:49:30;;;;;;;0.10;0.10;;;;;;;7.67;100.00;96773.56;4942613;28;20124;-78
2023/01/07 00:52:16;;;;;;;0.20;0.20;;;;;;;7.66;100.00;96769.28;4939635;28;20538;-76
2023/01/07 00:55:02;;;;;;;0.10;0.10;;;;;;;7.64;100.00;96778.53;4957493;28;20046;-77
2023/01/07 00:57:48;;;;;;;0.10;0.10;;;;;;;7.60;100.00;96770.16;4942626;28;20055;-77
2023/01/07 01:00:34;;;;;;;0.20;0.20;;;;;;;7.56;100.00;96776.19;4943199;28;20069;-77
2023/01/07 01:03:21;;;;;;;0.10;0.10;;;;;;;7.55;100.00;96767.38;4968729;28;20386;-77
2023/01/07 01:06:12;;;;;;;0.20;0.20;;;;;;;7.59;100.00;96775.72;4967818;28;20158;-76
2023/01/07 01:08:58;;;;;;;0.15;0.15;;;;;;;7.58;100.00;96766.91;4967622;28;20064;-76
2023/01/07 01:11:44;;;;;;;0.20;0.20;;;;;;;7.59;100.00;96770.41;4977918;28;20477;-76
2023/01/07 01:14:30;;;;;;;0.20;0.20;;;;;;;7.55;100.00;96764.72;4965438;28;20154;-78
2023/01/07 01:17:16;;;;;;;0.15;0.15;;;;;;;7.51;100.00;96764.31;4978755;28;20053;-77
2023/01/07 01:20:03;;;;;;;0.20;0.20;;;;;;;7.42;100.00;96767.50;4977849;28;20133;-77
2023/01/07 01:22:49;;;;;;;0.20;0.20;;;;;;;7.40;100.00;96757.09;4966491;28;20323;-77
2023/01/07 01:25:34;;;;;;;0.20;0.20;;;;;;;7.40;100.00;96761.59;4965717;28;20659;-78
2023/01/07 01:28:20;;;;;;;0.10;0.10;;;;;;;7.39;100.00;96766.13;4965513;28;20531;-76
2023/01/07 01:31:08;;;;;;;0.20;0.20;;;;;;;7.32;100.00;96760.03;4970684;28;20046;-76
2023/01/07 01:34:02;;;;;;;0.10;0.10;;;;;;;7.34;100.00;96751.81;4959390;28;20043;-78
2023/01/07 01:36:52;;;;;;;0.20;0.20;;;;;;;7.36;100.00;96755.88;4945224;28;20161;-76
2023/01/07 01:39:37;;;;;;;0.20;0.20;;;;;;;7.28;100.00;96758.03;4944871;28;20245;-76
2023/01/07 01:42:24;;;;;;;0.20;0.20;;;;;;;7.30;100.00;96751.44;4957567;28;20162;-77
2023/01/07 01:45:11;;;;;;;0.10;0.10;;;;;;;7.38;100.00;96756.47;4959340;28;20453;-78
2023/01/07 01:48:05;;;;;;;0.20;0.20;;;;;;;7.32;100.00;96752.06;4945635;28;20073;-76
2023/01/07 01:50:51;;;;;;;0.10;0.10;;;;;;;7.29;100.00;96747.16;4943606;28;20047;-78
2023/01/07 01:53:38;;;;;;;0.10;0.10;;;;;;;7.25;100.00;96741.47;4945280;28;20074;-77
2023/01/07 01:56:28;;;;;;;0.20;0.20;;;;;;;7.19;100.00;96738.88;4928037;28;20061;-78
2023/01/07 01:59:21;;;;;;;0.20;0.20;;;;;;;7.18;100.00;96738.06;4943361;28;20525;-78
2023/01/07 02:02:07;;;;;;;0.10;0.10;;;;;;;7.01;100.00;96741.50;4958893;28;20571;-76
2023/01/07 02:04:55;;;;;;;0.10;0.10;;;;;;;7.12;100.00;96743.44;4942959;28;20360;-77
2023/01/07 02:07:41;;;;;;;0.20;0.20;;;;;;;7.14;100.00;96741.38;4955448;28;20487;-76
2023/01/07 02:10:28;;;;;;;0.17;0.17;;;;;;;7.16;100.00;96737.47;4944325;28;20081;-77
2023/01/07 02:13:24;;;;;;;0.10;0.10;;;;;;;7.15;100.00;96743.78;4944867;28;20055;-77
2023/01/07 02:16:30;;;;;;;0.10;0.10;;;;;;;7.06;100.00;96742.47;4947746;28;20590;-77
2023/01/07 02:19:32;;;;;;;0.20;0.20;;;;;;;7.03;100.00;96744.75;4946543;28;20042;-77
2023/01/07 02:22:36;;;;;;;0.20;0.20;;;;;;;6.95;100.00;96738.69;4956336;28;20071;-77
2023/01/07 02:25:41;;;;;;;0.10;0.10;;;;;;;6.91;100.00;96739.31;4956458;28;20136;-77
2023/01/07 02:28:46;;;;;;;0.10;0.10;;;;;;;6.91;100.00;96731.34;4944940;28;20130;-78
2023/01/07 02:31:31;;;;;;;0.20;0.20;;;;;;;6.89;100.00;96738.72;4954844;28;20093;-77
2023/01/07 02:34:38;;;;;;;0.10;0.10;;;;;;;6.77;100.00;96730.66;4966713;28;20609;-76
2023/01/07 02:37:55;;;;;;;0.13;0.13;;;;;;;6.85;100.00;96733.03;4975720;28;20707;-76
2023/01/07 02:40:54;;;;;;;0.10;0.10;;;;;;;6.84;100.00;96736.72;4964026;28;20684;-77
2023/01/07 02:44:15;;;;;;;0.10;0.10;;;;;;;6.84;100.00;96731.38;4964297;28;20570;-77
2023/01/07 02:47:35;;;;;;;0.20;0.20;;;;;;;6.76;100.00;96726.34;4963598;28;20467;-76
2023/01/07 02:50:21;;;;;;;0.10;0.10;;;;;;;6.69;100.00;96718.44;4964641;28;20227;-77
2023/01/07 02:53:12;;;;;;;0.20;0.20;;;;;;;6.76;100.00;96723.69;4975971;28;20551;-77
2023/01/07 02:56:35;;;;;;;0.20;0.20;;;;;;;6.88;100.00;96721.97;4977455;28;20065;-77
2023/01/07 03:00:08;;;;;;;0.10;0.10;;;;;;;6.86;100.00;96713.38;4956306;28;20058;-77
2023/01/07 03:03:30;;;;;;;0.10;0.10;;;;;;;6.84;100.00;96720.75;4976256;28;20351;-75
2023/01/07 03:06:51;;;;;;;0.20;0.20;;;;;;;6.92;100.00;96717.81;4975551;28;20050;-76
2023/01/07 03:10:03;;;;;;;0.15;0.15;;;;;;;6.84;100.00;96718.09;4964085;28;20042;-77
2023/01/07 03:13:04;;;;;;;0.20;0.20;;;;;;;6.81;100.00;96717.72;4963679;28;20550;-76
2023/01/07 03:15:58;;;;;;;0.10;0.10;;;;;;;6.84;100.00;96718.09;4964518;28;20595;-77
2023/01/07 03:18:55;;;;;;;0.10;0.10;;;;;;;6.78;100.00;96716.31;4975434;28;20479;-76
2023/01/07 03:21:40;;;;;;;0.20;0.20;;;;;;;6.82;100.00;96712.19;4964383;28;20118;-77
2023/01/07 03:24:30;;;;;;;0.10;0.10;;;;;;;6.84;100.00;96706.63;4961596;28;20053;-77
2023/01/07 03:27:19;;;;;;;0.10;0.10;;;;;;;6.94;100.00;96705.13;4975716;28;20073;-77
2023/01/07 03:30:11;;;;;;;0.20;0.20;;;;;;;6.90;100.00;96705.78;4963882;28;20535;-77
2023/01/07 03:33:03;;;;;;;0.10;0.10;;;;;;;6.89;100.00;96707.63;4945206;28;20114;-76
2023/01/07 03:35:53;;;;;;;0.15;0.15;;;;;;;6.84;100.00;96701.31;4930490;28;20042;-77
2023/01/07 03:38:42;;;;;;;0.20;0.20;;;;;;;6.89;100.00;96712.94;4943634;28;20400;-77
2023/01/07 03:44:33;;;;;;;0.10;0.10;;;;;;;6.85;100.00;96703.78;4956171;28;20692;-77
2023/01/07 03:47:20;;;;;;;0.20;0.20;;;;;;;6.81;100.00;96689.28;4945295;28;20049;-78
2023/01/07 03:50:06;;;;;;;0.20;0.20;;;;;;;6.84;100.00;96693.34;4957081;28;20049;-77
2023/01/07 03:52:52;;;;;;;0.20;0.20;;;;;;;6.83;100.00;96697.84;4955713;28;20717;-76
2023/01/07 03:55:39;;;;;;;0.20;0.20;;;;;;;6.88;100.00;96695.34;4941296;28;20704;-76
2023/01/07 03:58:25;;;;;;;0.20;0.20;;;;;;;6.85;100.00;96690.50;4945108;28;20133;-77
2023/01/07 04:01:11;;;;;;;0.15;0.15;;;;;;;6.66;100.00;96676.31;4956668;28;20057;-77
2023/01/07 04:03:57;;;;;;;0.13;0.13;;;;;;;6.72;100.00;96682.63;4944746;28;20039;-75
2023/01/07 04:06:43;;;;;;;0.20;0.20;;;;;;;6.75;100.00;96684.81;4954191;28;20304;-79
2023/01/07 04:09:29;;;;;;;0.10;0.10;;;;;;;6.80;100.00;96678.88;4941652;28;20109;-78
2023/01/07 04:12:16;;;;;;;0.20;0.20;;;;;;;6.76;100.00;96678.47;4945156;28;20463;-76
2023/01/07 04:15:03;;;;;;;0.20;0.20;;;;;;;6.80;100.00;96677.00;4945917;28;20314;-77
2023/01/07 04:17:50;;;;;;;0.13;0.13;;;;;;;6.80;100.00;96671.69;4942095;28;20053;-77
2023/01/07 04:20:36;;;;;;;0.17;0.17;;;;;;;6.84;100.00;96675.53;4941960;28;20124;-76
2023/01/07 04:23:23;;;;;;;0.20;0.20;;;;;;;6.82;100.00;96661.66;4943738;28;20046;-77
2023/01/07 04:26:10;;;;;;;0.20;0.20;;;;;;;6.89;100.00;96658.91;4956415;28;20380;-74
2023/01/07 04:28:57;;;;;;;0.20;0.20;;;;;;;6.78;100.00;96657.00;4956453;28;20842;-75
2023/01/07 04:31:45;;;;;;;0.20;0.20;;;;;;;6.76;100.00;96654.53;4940754;28;20054;-74
2023/01/07 04:34:31;;;;;;;0.17;0.17;;;;;;;6.74;100.00;96655.78;4944705;28;20042;-77
2023/01/07 04:37:17;;;;;;;0.30;0.30;;;;;;;6.76;100.00;96646.56;4947530;28;20130;-77
2023/01/07 04:40:03;;;;;;;0.20;0.20;;;;;;;6.76;100.00;96637.75;4946858;28;20162;-76
2023/01/07 04:42:53;;;;;;;0.20;0.20;;;;;;;6.89;100.00;96635.78;4947667;28;20073;-75
2023/01/07 04:45:39;;;;;;;0.10;0.10;;;;;;;6.74;100.00;96635.34;4960651;28;20043;-76
2023/01/07 04:48:25;;;;;;;0.20;0.20;;;;;;;6.67;100.00;96642.56;4957539;28;20059;-77
2023/01/07 04:51:13;;;;;;;0.20;0.20;;;;;;;6.62;100.00;96629.94;4947995;28;20043;-78
2023/01/07 04:53:59;;;;;;;0.20;0.20;;;;;;;6.73;100.00;96633.72;4948393;28;20483;-76
2023/01/07 04:56:45;;;;;;;0.20;0.20;;;;;;;6.72;100.00;96628.63;4944188;28;20129;-78
2023/01/07 04:59:31;;;;;;;0.17;0.17;;;;;;;6.66;100.00;96622.31;4934203;28;20488;-77
2023/01/07 05:02:19;;;;;;;0.10;0.10;;;;;;;6.68;100.00;96625.56;4945122;28;20496;-77
2023/01/07 05:05:06;;;;;;;0.10;0.10;;;;;;;6.68;100.00;96614.94;4948685;28;20045;-77
2023/01/07 05:07:54;;;;;;;0.20;0.20;;;;;;;6.60;100.00;96610.72;4960913;28;20277;-77
2023/01/07 05:10:41;;;;;;;0.20;0.20;;;;;;;6.59;100.00;96601.09;4945142;28;20057;-76
2023/01/07 05:13:30;;;;;;;0.13;0.13;;;;;;;6.62;100.00;96600.69;4947440;28;20045;-77
2023/01/07 05:16:16;;;;;;;0.10;0.10;;;;;;;6.64;100.00;96598.63;4960201;28;20074;-77
2023/01/07 05:19:03;;;;;;;0.20;0.20;;;;;;;6.67;100.00;96597.34;4948524;28;20098;-76
2023/01/07 05:21:53;;;;;;;0.20;0.20;;;;;;;6.64;100.00;96593.28;4943825;28;20456;-77
2023/01/07 05:24:40;;;;;;;0.15;0.15;;;;;;;6.66;100.00;96591.22;4944817;28;20710;-76
2023/01/07 05:27:26;;;;;;;0.20;0.20;;;;;;;6.66;100.00;96593.06;4949140;28;20047;-75
2023/01/07 05:30:13;;;;;;;0.20;0.20;;;;;;;6.58;100.00;96590.69;4948796;28;20215;-76
2023/01/07 05:32:58;;;;;;;0.20;0.20;;;;;;;6.56;100.00;96582.13;4968447;28;20295;-75
2023/01/07 05:35:47;;;;;;;0.20;0.20;;;;;;;6.59;100.00;96590.47;4979713;28;20043;-75
2023/01/07 05:38:35;;;;;;;0.13;0.13;;;;;;;6.53;100.00;96580.72;4967747;28;20137;-76
2023/01/07 05:41:21;;;;;;;0.10;0.10;;;;;;;6.48;100.00;96572.59;4965875;28;20034;-76
2023/01/07 05:44:06;;;;;;;0.20;0.20;;;;;;;6.45;100.00;96577.53;4968284;28;20034;-76
2023/01/07 05:46:52;;;;;;;0.20;0.20;;;;;;;6.41;100.00;96571.84;4968004;28;20738;-76
2023/01/07 05:49:38;;;;;;;0.13;0.13;;;;;;;6.37;100.00;96571.47;4964587;28;20730;-76
2023/01/07 05:52:24;;;;;;;0.20;0.20;;;;;;;6.37;100.00;96570.66;4965590;28;20582;-77
2023/01/07 05:55:10;;;;;;;0.20;0.20;;;;;;;6.32;100.00;96573.16;4967248;28;20157;-76
2023/01/07 05:57:56;;;;;;;0.10;0.10;;;;;;;6.32;100.00;96568.66;4966481;28;20232;-77
2023/01/07 06:00:42;;;;;;;0.10;0.10;;;;;;;6.26;100.00;96569.53;4960280;28;20042;-77
2023/01/07 06:03:30;;;;;;;0.20;0.20;;;;;;;6.34;100.00;96558.63;4945524;28;20089;-75
2023/01/07 06:06:16;;;;;;;0.20;0.20;;;;;;;6.37;100.00;96566.13;4947193;28;20284;-76
2023/01/07 06:09:02;;;;;;;0.10;0.10;;;;;;;6.39;100.00;96556.13;4947155;28;20295;-76
2023/01/07 06:11:48;;;;;;;0.20;0.20;;;;;;;6.37;100.00;96554.69;4947233;28;20340;-75
2023/01/07 06:14:34;;;;;;;0.20;0.20;;;;;;;6.32;100.00;96546.59;4946231;28;20054;-77
2023/01/07 06:17:20;;;;;;;0.20;0.20;;;;;;;6.39;100.00;96550.81;4946125;28;20042;-76
2023/01/07 06:20:08;;;;;;;0.20;0.20;;;;;;;6.34;100.00;96553.28;4943708;28;20559;-77
2023/01/07 06:22:54;;;;;;;0.10;0.10;;;;;;;6.36;100.00;96545.91;4944087;28;20133;-77
2023/01/07 06:25:40;;;;;;;0.20;0.20;;;;;;;6.30;100.00;96528.22;4946637;28;20682;-76
2023/01/07 06:28:26;;;;;;;0.10;0.10;;;;;;;6.29;100.00;96534.53;4946194;28;20034;-77
2023/01/07 06:31:11;;;;;;;0.10;0.10;;;;;;;6.25;100.00;96533.34;4946619;28;20047;-76
2023/01/07 06:33:57;;;;;;;0.10;0.10;;;;;;;6.26;100.00;96532.31;4944595;28;20122;-76
2023/01/07 06:36:43;;;;;;;0.20;0.20;;;;;;;6.24;100.00;96529.06;4946248;28;20543;-76
2023/01/07 06:39:29;;;;;;;0.20;0.20;;;;;;;6.27;100.00;96525.16;4944729;28;20538;-76
2023/01/07 06:42:15;;;;;;;0.20;0.20;;;;;;;6.22;100.00;96525.00;4942450;28;20068;-74
2023/01/07 06:45:00;;;;;;;0.20;0.20;;;;;;;6.21;100.00;96523.38;4944672;28;20034;-77
2023/01/07 06:47:49;;;;;;;0.20;0.20;;;;;;;6.22;100.00;96525.00;4945667;28;20767;-78
2023/01/07 06:50:35;;;;;;;0.20;0.20;;;;;;;6.23;100.00;96519.47;4945806;28;20054;-77
2023/01/07 06:53:21;;;;;;;0.20;0.20;;;;;;;6.25;100.00;96511.28;4948679;28;20238;-77
2023/01/07 06:56:07;;;;;;;0.10;0.10;;;;;;;6.19;100.00;96509.50;4942769;28;20043;-75
2023/01/07 06:58:53;;;;;;;0.20;0.20;;;;;;;6.19;100.00;96499.69;4944366;28;20681;-76
2023/01/07 07:01:39;;;;;;;0.20;0.20;;;;;;;6.17;100.00;96507.06;4957479;28;20330;-75
2023/01/07 07:04:24;;;;;;;0.10;0.10;;;;;;;6.16;100.00;96500.13;4964580;28;20653;-76
2023/01/07 07:07:10;;;;;;;0.10;0.10;;;;;;;6.10;100.00;96495.69;4966068;28;20038;-76
2023/01/07 07:09:56;;;;;;;0.20;0.20;;;;;;;6.04;100.00;96499.22;4964044;28;20780;-75
2023/01/07 07:12:42;;;;;;;0.20;0.20;;;;;;;6.07;100.00;96504.06;4965943;28;20045;-77
2023/01/07 07:15:28;;;;;;;0.10;0.10;;;;;;;6.01;100.00;96503.13;4965582;28;20698;-76
2023/01/07 07:18:15;;;;;;;0.20;0.20;;;;;;;6.05;100.00;96503.50;4964688;28;20042;-76
2023/01/07 07:21:02;;;;;;;0.10;0.10;;;;;;;6.13;100.00;96492.59;4964028;28;20290;-75
2023/01/07 07:23:48;;;;;;;0.20;0.20;;;;;;;6.03;100.00;96479.81;4965563;28;20081;-76
2023/01/07 07:26:33;;;;;;;0.20;0.20;;;;;;;6.07;100.00;96490.78;4965172;28;20656;-76
2023/01/07 07:29:19;;;;;;;0.10;0.10;;;;;;;6.11;100.00;96492.00;4963805;28;20363;-75
2023/01/07 07:32:06;;;;;;;0.20;0.20;;;;;;;6.04;100.00;96488.59;4948666;28;20523;-76
2023/01/07 07:34:52;;;;;;;0.17;0.17;;;;;;;6.02;100.00;96491.47;4947393;28;20125;-75
2023/01/07 07:37:38;;;;;;;0.10;0.10;;;;;;;5.99;100.00;96478.63;4947048;28;20277;-77
2023/01/07 07:40:24;;;;;;;0.20;0.20;;;;;;;5.92;100.00;96477.06;4946929;28;20516;-77
2023/01/07 07:43:10;;;;;;;0.20;0.20;;;;;;;5.97;100.00;96486.00;4949373;28;20435;-76
2023/01/07 07:45:56;;;;;;;0.20;0.20;;;;;;;5.99;100.00;96477.78;4946344;28;20051;-79
2023/01/07 07:48:42;;;;;;;0.15;0.15;;;;;;;5.97;100.00;96478.03;4947409;28;20065;-77
2023/01/07 07:51:28;;;;;;;0.17;0.17;;;;;;;5.98;100.00;96469.00;4946711;28;20433;-76
2023/01/07 07:54:14;;;;;;;0.20;0.20;;;;;;;6.02;100.00;96469.41;4946612;28;20395;-76
2023/01/07 07:57:02;;;;;;;0.10;0.10;;;;;;;6.13;100.00;96463.34;4946188;28;20121;-76
2023/01/07 07:59:48;;;;;;;0.10;0.10;;;;;;;6.11;100.00;96463.59;4945238;28;20399;-77
2023/01/07 08:02:34;;;;;;;0.20;0.20;;;;;;;6.09;100.00;96463.00;4965183;28;20062;-77
2023/01/07 08:05:20;;;;;;;0.10;0.10;;;;;;;6.12;100.00;96459.06;4966031;28;20780;-74
2023/01/07 08:08:10;;;;;;;0.20;0.20;;;;;;;6.07;100.00;96461.56;4957558;28;20652;-76
2023/01/07 08:10:56;;;;;;;0.27;0.27;;;;;;;6.10;100.00;96450.53;4977945;28;20327;-77
2023/01/07 08:13:43;;;;;;;0.10;0.10;;;;;;;6.05;100.00;96445.84;4968864;28;20293;-78
2023/01/07 08:16:29;;;;;;;0.20;0.20;;;;;;;6.05;100.00;96450.34;4970488;28;20606;-78
2023/01/07 08:19:15;;;;;;;0.20;0.20;;;;;;;6.12;100.00;96451.09;4970490;28;20035;-75
2023/01/07 08:22:01;;;;;;;0.20;0.20;;;;;;;6.05;100.00;96439.72;4969702;28;20585;-78
2023/01/07 08:24:47;;;;;;;0.10;0.10;;;;;;;6.12;100.00;96443.13;4968738;28;20050;-75
2023/01/07 08:27:32;;;;;;;0.20;0.20;;;;;;;6.13;100.00;96437.59;4982006;28;20042;-77
2023/01/07 08:30:19;;;;;;;0.20;0.20;;;;;;;6.06;100.00;96430.72;4965864;28;20654;-75
2023/01/07 08:33:06;;;;;;;0.22;0.22;;;;;;;6.02;100.00;96429.56;4949266;28;20082;-76
2023/01/07 08:35:52;;;;;;;0.20;0.20;;;;;;;6.03;100.00;96421.38;4948637;28;20141;-77
2023/01/07 08:38:38;;;;;;;0.10;0.10;;;;;;;6.06;100.00;96426.22;4941601;28;20244;-75
2023/01/07 08:41:24;;;;;;;0.20;0.20;;;;;;;6.08;100.00;96428.69;4951081;28;20050;-77
2023/01/07 08:44:10;;;;;;;0.20;0.20;;;;;;;6.10;100.00;96427.41;4949445;28;20046;-77
2023/01/07 08:46:56;;;;;;;0.20;0.20;;;;;;;6.17;100.00;96426.53;4948916;28;20308;-77
2023/01/07 08:49:42;;;;;;;0.10;0.10;;;;;;;6.16;100.00;96419.59;4949325;28;20627;-78
2023/01/07 08:52:28;;;;;;;0.20;0.20;;;;;;;6.19;100.00;96419.16;4949760;28;20347;-77
2023/01/07 08:55:13;;;;;;;0.20;0.20;;;;;;;6.22;100.00;96418.69;4951096;28;20054;-78
2023/01/07 08:57:59;;;;;;;0.10;0.10;;;;;;;6.28;100.00;96410.66;4946741;28;20618;-78
2023/01/07 09:00:45;;;;;;;0.20;0.20;;;;;;;6.27;100.00;96403.72;4953124;28;20482;-78
2023/01/07 09:03:32;;;;;;;0.20;0.20;;;;;;;6.30;100.00;96399.81;4981867;28;20050;-78
2023/01/07 09:06:17;;;;;;;0.20;0.20;;;;;;;6.31;100.00;96391.63;4965618;28;20520;-75
2023/01/07 09:09:05;;;;;;;0.20;0.20;;;;;;;6.29;100.00;96392.88;4967577;28;20156;-76
2023/01/07 09:11:51;;;;;;;0.10;0.10;;;;;;;6.37;100.00;96382.75;4968668;28;20053;-78
2023/01/07 09:14:37;;;;;;;0.10;0.10;;;;;;;6.36;100.00;96378.47;4968985;28;20046;-78
2023/01/07 09:17:23;;;;;;;0.20;0.20;;;;;;;6.34;100.00;96385.84;4969211;28;20648;-77
2023/01/07 09:20:09;;;;;;;0.20;0.20;;;;;;;6.36;100.00;96370.50;4967544;28;20046;-76
2023/01/07 09:22:55;;;;;;;0.10;0.10;;;;;;;6.34;100.00;96372.56;4966523;28;20223;-76
2023/01/07 09:25:41;;;;;;;0.10;0.10;;;;;;;6.49;100.00;96374.84;4968414;28;20482;-76
2023/01/07 09:28:27;;;;;;;0.20;0.20;;;;;;;6.56;100.00;96377.41;4967577;28;20101;-76
2023/01/07 09:31:12;;;;;;;0.20;0.20;;;;;;;6.50;100.00;96373.00;4957760;28;20077;-78
2023/01/07 09:33:58;;;;;;;0.20;0.20;;;;;;;6.45;100.00;96375.50;4948633;28;20078;-76
2023/01/07 09:36:44;;;;;;;0.20;0.20;;;;;;;6.50;100.00;96380.97;4949135;28;20543;-77
2023/01/07 09:39:38;;;;;;;0.20;0.20;;;;;;;6.46;100.00;96377.13;4947907;28;20039;-76
2023/01/07 09:42:42;;;;;;;0.10;0.10;;;;;;;6.47;100.00;96379.56;4948888;28;20050;-76
2023/01/07 09:45:33;;;;;;;0.15;0.15;;;;;;;6.46;100.00;96377.13;4949539;28;20523;-75
2023/01/07 09:48:33;;;;;;;0.10;0.10;;;;;;;6.47;100.00;96384.88;4948643;28;20515;-76
2023/01/07 09:51:33;;;;;;;0.10;0.10;;;;;;;6.46;100.00;96377.97;4946391;28;20053;-77
2023/01/07 09:54:32;;;;;;;0.17;0.17;;;;;;;6.48;100.00;96364.44;4946950;28;20086;-77
2023/01/07 09:57:19;;;;;;;0.20;0.20;;;;;;;6.45;100.00;96386.13;4947472;28;20046;-78
2023/01/07 10:00:18;;;;;;;0.10;0.10;;;;;;;6.45;100.00;96370.19;4944558;28;20104;-77
2023/01/07 10:03:09;;;;;;;0.20;0.20;;;;;;;6.60;100.00;96375.91;4948337;28;20437;-76
2023/01/07 10:06:30;;;;;;;;;;;;;;;6.63;100.00;96364.84;4947984;28;20444;-78
2023/01/07 10:09:49;;;;;;;0.20;0.20;;;;;;;6.70;100.00;96368.22;4906001;29;19923;-78
2023/01/07 10:12:44;;;;;;;0.10;0.10;;;;;;;6.63;100.00;96348.88;4949088;28;20078;-79
2023/01/07 10:15:50;;;;;;;0.13;0.13;;;;;;;6.86;100.00;96362.25;4948230;28;21141;-78
2023/01/07 10:18:51;;;;;;;0.20;0.20;;;;;;;6.89;100.00;96361.78;4948676;28;20129;-79
2023/01/07 10:21:42;;;;;;;0.20;0.20;;;;;;;6.75;100.00;96355.03;4948072;28;20047;-78
2023/01/07 10:24:40;;;;;;;0.13;0.13;;;;;;;6.84;100.00;96353.69;4948754;28;20777;-77
2023/01/07 10:27:36;;;;;;;0.20;0.20;;;;;;;6.99;100.00;96348.75;4946182;28;20286;-77
2023/01/07 10:30:25;;;;;;;0.10;0.10;;;;;;;7.21;100.00;96354.34;4946645;28;21353;-78
2023/01/07 10:33:18;;;;;;;0.20;0.20;;;;;;;7.26;100.00;96337.69;4966885;28;20043;-78
2023/01/07 10:36:21;;;;;;;0.20;0.20;;;;;;;7.22;100.00;96332.00;4965829;28;20315;-76
2023/01/07 10:39:27;;;;;;;0.20;0.20;;;;;;;7.31;100.00;96324.50;4967161;28;20487;-78
2023/01/07 10:42:28;;;;;;;0.20;0.20;;;;;;;7.42;100.00;96310.38;4967284;28;20046;-79
2023/01/07 10:45:50;;;;;;;0.20;0.20;;;;;;;7.45;100.00;96301.13;4965912;28;20057;-79
2023/01/07 10:48:57;;;;;;;0.10;0.10;;;;;;;7.40;100.00;96293.03;4945820;28;20042;-77
2023/01/07 10:52:10;;;;;;;0.20;0.20;;;;;;;7.57;100.00;96291.28;4966120;28;20334;-77
2023/01/07 10:55:10;;;;;;;0.20;0.20;;;;;;;7.65;100.00;96284.78;4968909;28;20443;-78
2023/01/07 10:58:03;;;;;;;0.20;0.20;;;;;;;7.56;100.00;96291.53;5092705;27;20404;-76
2023/01/07 11:00:49;;;;;;;0.20;0.20;;;;;;;7.50;100.00;96280.75;5080447;27;20052;-75
2023/01/07 11:03:37;;;;;;;0.20;0.20;;;;;;;7.87;100.00;96283.13;5080840;27;20296;-76
2023/01/07 11:06:32;;;;;;;0.10;0.10;;;;;;;7.69;100.00;96278.75;5052372;28;20820;-75
2023/01/07 11:09:26;;;;;;;0.20;0.20;;;;;;;7.42;100.00;96273.13;5052573;28;20091;-78
2023/01/07 11:12:24;;;;;;;0.20;0.20;;;;;;;7.80;100.00;96271.78;5051122;28;20052;-78
2023/01/07 11:15:28;;;;;;;0.20;0.20;;;;;;;7.73;100.00;96249.81;5051574;28;20463;-76
2023/01/07 11:18:23;;;;;;;0.20;0.20;;;;;;;7.88;100.00;96254.63;5046000;28;20083;-78
2023/01/07 11:21:09;;;;;;;0.20;0.20;;;;;;;7.69;100.00;96252.09;5049345;28;20421;-78
2023/01/07 11:23:54;;;;;;;0.20;0.20;;;;;;;7.49;100.00;96249.03;5051172;28;20052;-77
2023/01/07 11:26:40;;;;;;;0.10;0.10;;;;;;;7.45;100.00;96248.69;5049449;28;20404;-75
2023/01/07 11:29:33;;;;;;;0.20;0.20;;;;;;;7.37;100.00;96241.03;5053204;28;20044;-78
2023/01/07 11:32:25;;;;;;;0.20;0.20;;;;;;;7.43;100.00;96232.13;5031129;28;20045;-77
2023/01/07 11:35:17;;;;;;;0.30;0.30;;;;;;;7.40;100.00;96240.59;5058840;28;20045;-75
2023/01/07 11:38:33;;;;;;;0.20;0.20;;;;;;;7.67;100.00;96237.41;5029998;28;20459;-76
2023/01/07 11:41:24;;;;;;;0.10;0.10;;;;;;;7.70;100.00;96229.75;5030075;28;20037;-76
2023/01/07 11:44:15;;;;;;;0.10;0.10;;;;;;;7.49;100.00;96212.56;5031285;28;20414;-76
2023/01/07 11:47:02;;;;;;;0.20;0.20;;;;;;;7.58;100.00;96218.34;5028692;28;20333;-77
2023/01/07 11:49:47;;;;;;;0.15;0.15;;;;;;;7.61;100.00;96209.06;5029065;28;20228;-77
2023/01/07 11:52:34;;;;;;;0.10;0.10;;;;;;;7.72;100.00;96226.88;5030205;28;20033;-77
2023/01/07 11:55:20;;;;;;;0.20;0.20;;;;;;;7.69;100.00;96198.03;5026584;28;20045;-75
2023/01/07 11:58:18;;;;;;;0.17;0.17;;;;;;;7.96;100.00;96191.13;5057139;28;20524;-77
2023/01/07 12:01:07;;;;;;;0.20;0.20;;;;;;;7.83;100.00;96194.88;5029731;28;20045;-75
2023/01/07 12:03:53;;;;;;;0.20;0.20;;;;;;;7.87;100.00;96187.22;5028985;28;20492;-76
2023/01/07 12:06:43;;;;;;;0.10;0.10;;;;;;;8.03;100.00;96185.66;5029337;28;20052;-78
2023/01/07 12:09:35;;;;;;;0.10;0.10;;;;;;;7.82;100.00;96163.13;5016118;28;20285;-76
2023/01/07 12:12:33;;;;;;;0.17;0.17;;;;;;;7.63;100.00;96165.19;5014687;28;20128;-75
2023/01/07 12:15:26;;;;;;;0.10;0.10;;;;;;;7.73;100.00;96149.41;5014560;28;20049;-75
2023/01/07 12:18:24;;;;;;;0.20;0.20;;;;;;;7.63;100.00;96137.75;5016156;28;20052;-77
2023/01/07 12:21:26;;;;;;;0.15;0.15;;;;;;;7.47;100.00;96134.78;5016150;28;20869;-78
2023/01/07 12:24:37;;;;;;;0.20;0.20;;;;;;;7.57;100.00;96131.50;5018779;28;20041;-78
2023/01/07 12:27:39;;;;;;;0.20;0.20;;;;;;;7.55;100.00;96130.94;5015913;28;20049;-77
2023/01/07 12:30:28;;;;;;;;;;;;;;;7.50;100.00;96131.66;5015063;28;20057;-78
2023/01/07 12:34:00;;;;;;;0.17;0.17;;;;;;;7.45;100.00;96126.22;5018664;28;19921;-79
2023/01/07 12:37:03;;;;;;;0.20;0.20;;;;;;;7.42;100.00;96121.38;5015784;28;20076;-79
2023/01/07 12:39:52;;;;;;;0.20;0.20;;;;;;;7.20;100.00;96099.09;5017912;28;20045;-78
2023/01/07 12:42:43;;;;;;;0.20;0.20;;;;;;;7.36;100.00;96097.53;5017666;28;20041;-77
2023/01/07 12:45:38;;;;;;;0.20;0.20;;;;;;;7.30;100.00;96101.94;5016997;28;20041;-78
2023/01/07 12:48:42;;;;;;;0.20;0.20;;;;;;;7.36;100.00;96097.53;5017247;28;20145;-76
2023/01/07 12:51:41;;;;;;;0.10;0.10;;;;;;;7.34;100.00;96081.81;5015555;28;20041;-77
2023/01/07 12:55:00;;;;;;;0.20;0.20;;;;;;;7.40;100.00;96077.41;5021715;28;20486;-77
2023/01/07 12:57:59;;;;;;;0.10;0.10;;;;;;;7.45;100.00;96078.28;5018800;28;20533;-78
2023/01/07 13:01:23;;;;;;;0.20;0.20;;;;;;;7.45;100.00;96078.28;5013636;28;20535;-77
2023/01/07 13:04:38;;;;;;;0.20;0.20;;;;;;;7.43;100.00;96067.06;5020108;28;20033;-77
2023/01/07 13:07:36;;;;;;;0.20;0.20;;;;;;;7.27;100.00;96073.16;5013181;28;20045;-75
2023/01/07 13:10:33;;;;;;;0.10;0.10;;;;;;;7.25;100.00;96068.06;5042104;28;20060;-75
2023/01/07 13:13:45;;;;;;;0.13;0.13;;;;;;;7.21;100.00;96066.13;5015095;28;20107;-76
2023/01/07 13:16:31;;;;;;;0.20;0.20;;;;;;;7.18;100.00;96062.09;5016635;28;20237;-77
2023/01/07 13:19:17;;;;;;;0.10;0.10;;;;;;;7.20;100.00;96061.84;5012610;28;20037;-77
2023/01/07 13:22:03;;;;;;;0.10;0.10;;;;;;;7.10;100.00;96059.78;5015157;28;20036;-76
2023/01/07 13:24:55;;;;;;;0.20;0.20;;;;;;;7.09;100.00;96055.53;5016400;28;20049;-77
2023/01/07 13:28:00;;;;;;;;;;;;;;;7.15;100.00;96056.41;5016060;28;20037;-75
2023/01/07 13:31:10;;;;;;;0.10;0.10;;;;;;;7.11;100.00;96044.63;5041332;28;20344;-76
2023/01/07 13:34:10;;;;;;;0.10;0.10;;;;;;;7.05;100.00;96048.22;5022820;28;20041;-74